Temp: 7.4°C   Baro: 1005.1mb
  Wind: 2.0mph   Dir: SW (220°)
  Rain: 5.6mm (0.0mm/hr)
  Solar: 0W/m2  Hum: 95%

10 day detailed forecast for Bath, United Kingdom

Last update: 26.01.2020 13:18
Next update: 26.01.2020 19:21
Latitude: 51.38° N
Longitude: 2.36° W
meteogram
    Temperature Precipitation Pressure Wind Humidity Clouds Fog
 07:56     16:47 Today
20:00   1006.4 mb 7 mph 93% 6%
21:00   1005.5 mb 9 mph 96% 21%
22:00   1005.6 mb 8 mph 97% 24%
23:00   1005.7 mb 9 mph 96% 56%
 07:55     16:49 Tomorrow
00:00 0.2 mm 1005.2 mb 12 mph 94% 35%
01:00   1004.5 mb 13 mph 93% 12%
02:00   1004.2 mb 13 mph 92% 35%
03:00   1003.8 mb 12 mph 92% 98%
04:00 0.1 mm 1003.2 mb 12 mph 90% 100%
05:00 0.1 mm 1002.9 mb 12 mph 88% 99%
06:00   1002.8 mb 10 mph 90% 98%
07:00   1002.5 mb 9 mph 92% 96%
08:00   1002.6 mb 8 mph 93% 98%
09:00 0.1 mm 1002.5 mb 8 mph 93% 96%
10:00   1002.1 mb 7 mph 92% 89%
11:00   1001.8 mb 9 mph 86% 98%
12:00   1000.7 mb 10 mph 82% 84%
13:00   999.4 mb 10 mph 79% 98%
14:00   998.1 mb 9 mph 80% 99%
15:00   997.2 mb 10 mph 81% 98%
16:00   996.1 mb 10 mph 84% 98%
17:00   995.3 mb 10 mph 91% 99%
18:00   994.7 mb 10 mph 92% 98%
19:00   993.9 mb 9 mph 93% 98%
20:00 0.1 mm 993.4 mb 9 mph 92% 97%
21:00 0.2 mm 992.5 mb 8 mph 90% 91%
22:00   992.0 mb 10 mph 93% 95%
23:00 0.1 mm 991.8 mb 11 mph 92% 98%
 07:53     16:50 Tuesday 28.01.2020
00:00 0.3 mm 991.6 mb 15 mph 89% 99%
01:00 0.3 mm 991.4 mb 14 mph 92% 94%
02:00   991.6 mb 18 mph 91% 98%
03:00 0.1 mm 992.2 mb 17 mph 90% 82%
04:00   992.7 mb 16 mph 91% 83%
05:00   993.6 mb 14 mph 87% 68%
06:00   994.7 mb 13 mph 82% 3%
07:00   995.8 mb 12 mph 83% 1%
08:00   996.9 mb 11 mph 84% 2%
09:00   997.6 mb 12 mph 79% 44%
10:00   997.7 mb 16 mph 81% 42%
11:00   997.6 mb 15 mph 81% 47%
12:00   997.6 mb 20 mph 73% 81%
13:00 0.3 mm 997.2 mb 19 mph 82% 82%
14:00 0.2 mm 997.2 mb 18 mph 85% 84%
15:00 0.2 mm 997.0 mb 17 mph 84% 55%
16:00 0.1 mm 997.7 mb 19 mph 81% 65%
17:00 0.1 mm 998.5 mb 17 mph 79% 27%
18:00   999.6 mb 14 mph 77% 2%
19:00   1000.7 mb 13 mph 76% 1%
20:00   1001.7 mb 13 mph 74% 1%
21:00   1002.6 mb 13 mph 76% 1%
22:00   1003.3 mb 13 mph 78% 34%
23:00   1004.0 mb 13 mph 80% 36%
 07:52     16:52 Wednesday 29.01.2020
00:00   1004.4 mb 14 mph 77% 9%
01:00   1005.0 mb 13 mph 78% 12%
02:00   1005.3 mb 11 mph 78% 40%
03:00   1005.7 mb 11 mph 78% 9%
04:00   1005.8 mb 13 mph 79% 4%
05:00   1006.3 mb 12 mph 79% 81%
06:00   1007.1 mb 13 mph 81% 98%
12:00   1010.5 mb 17 mph 69% 71%
18:00   1009.2 mb 11 mph 85% 98%
 07:50     16:54 Thursday 30.01.2020
00:00   1003.8 mb 11 mph 93% 100%
06:00 5.5 mm 992.3 mb 11 mph 96% 100%
12:00 2.6 mm 995.2 mb 17 mph 79% 6%
18:00 0.1 mm 1002.2 mb 15 mph 92% 100%
 07:49     16:56 Friday 31.01.2020
00:00 0.4 mm 1005.5 mb 18 mph 92% 100%
06:00 1.4 mm 1003.5 mb 14 mph 94% 100%
12:00 4.3 mm 1001.6 mb 17 mph 90% 100%
18:00 0.4 mm 1002.7 mb 17 mph 93% 100%
 07:48     16:57 Saturday 01.02.2020
00:00 0.1 mm 1003.3 mb 15 mph 90% 93%
06:00 0.2 mm 1001.3 mb 16 mph 84% 13%
12:00 1.0 mm 1002.1 mb 21 mph 81% 30%
18:00 0.3 mm 1004.1 mb 25 mph 79% 30%
 07:46     16:59 Sunday 02.02.2020
00:00   1009.9 mb 17 mph 83% 80%
06:00   1013.5 mb 6 mph 95% 100%
12:00 6.6 mm 1011.2 mb 11 mph 95% 100%
18:00 2.0 mm 1009.3 mb 12 mph 94% 100%
 07:44     17:01 Monday 03.02.2020
00:00 0.8 mm 1009.4 mb 16 mph 91% 100%
06:00 1.3 mm 1010.0 mb 16 mph 92% 100%
12:00 0.3 mm 1014.9 mb 13 mph 88% 90%
18:00   1015.7 mb 4 mph 95% 98%
 07:43     17:03 Tuesday 04.02.2020
00:00 0.7 mm 1014.3 mb 8 mph 96% 99%
06:00 1.2 mm 1012.4 mb 8 mph 96% 100%
12:00 0.5 mm 1012.0 mb 10 mph 92% 100%
18:00 0.2 mm 1011.9 mb 9 mph 88% 88%